Time;durP1;ratioP1;P1;durP2;ratioP2;P2;SDS_P1;SDS_P2;PMS_P1;PMS_P2;Temp;Humidity;BMP_temperature;BMP_pressure;BME280_temperature;BME280_humidity;BME280_pressure;Samples;Min_cycle;Max_cycle;Signal;HPM_P1;HPM_P2
2021/12/29 00:00:27;;;;;;;61.23;30.77;;;;;;;2.07;78.62;98819.05;1910306;92;27768;-62
2021/12/29 00:03:31;;;;;;;64.35;32.25;;;;;;;2.09;78.67;98821.66;1930059;92;27747;-62
2021/12/29 00:06:33;;;;;;;55.28;25.88;;;;;;;2.09;78.63;98822.50;1930018;92;28736;-62
2021/12/29 00:09:37;;;;;;;46.58;26.15;;;;;;;2.10;78.64;98829.50;1929880;92;32020;-62
2021/12/29 00:12:41;;;;;;;41.63;23.07;;;;;;;2.12;78.67;98825.50;1929889;92;33858;-62
2021/12/29 00:15:43;;;;;;;52.73;26.00;;;;;;;2.10;78.61;98821.58;1907535;90;29346;-61
2021/12/29 00:18:45;;;;;;;33.10;18.55;;;;;;;2.12;78.65;98821.54;1898253;93;27656;-62
2021/12/29 00:21:48;;;;;;;43.17;23.75;;;;;;;2.11;78.69;98819.34;1898309;93;29181;-62
2021/12/29 00:24:50;;;;;;;42.27;21.77;;;;;;;2.11;78.70;98818.50;1908843;92;32310;-62
2021/12/29 00:27:55;;;;;;;42.20;20.10;;;;;;;2.13;78.79;98818.83;1927288;92;34185;-61
2021/12/29 00:30:55;;;;;;;37.63;20.62;;;;;;;2.14;78.77;98821.02;1927514;92;29761;-61
2021/12/29 00:33:58;;;;;;;41.20;20.90;;;;;;;2.16;78.77;98816.98;1914325;92;28505;-61
2021/12/29 00:37:00;;;;;;;38.42;19.77;;;;;;;2.16;78.73;98820.47;1990719;87;29250;-61
2021/12/29 00:40:03;;;;;;;33.60;17.82;;;;;;;2.16;78.79;98817.83;2003819;88;31522;-61
2021/12/29 00:43:06;;;;;;;29.07;17.25;;;;;;;2.16;78.74;98824.91;1987795;88;33752;-62
2021/12/29 00:46:11;;;;;;;35.35;20.43;;;;;;;2.15;78.75;98823.19;2016751;87;30275;-61
2021/12/29 00:49:13;;;;;;;33.33;18.37;;;;;;;2.16;78.72;98824.91;2016954;87;27713;-61
2021/12/29 00:52:15;;;;;;;28.57;16.80;;;;;;;2.15;78.77;98820.11;2017612;87;29113;-62
2021/12/29 00:55:17;;;;;;;27.25;16.50;;;;;;;2.17;78.79;98820.88;1990740;88;32293;-62
2021/12/29 00:58:19;;;;;;;28.87;16.15;;;;;;;2.16;78.76;98816.98;1985493;88;32975;-62
2021/12/29 01:01:21;;;;;;;26.95;15.63;;;;;;;2.15;78.81;98808.66;1984894;89;30540;-63
2021/12/29 01:04:24;;;;;;;27.45;17.42;;;;;;;2.16;78.83;98808.59;2001946;88;27546;-62
2021/12/29 01:07:26;;;;;;;29.77;15.20;;;;;;;2.15;78.82;98816.14;2017322;86;29925;-62
2021/12/29 01:10:28;;;;;;;31.17;14.78;;;;;;;2.15;78.79;98811.30;2017426;86;32435;-63
2021/12/29 01:13:31;;;;;;;25.25;14.55;;;;;;;2.14;78.82;98809.14;2009897;87;34187;-63
2021/12/29 01:19:36;;;;;;;25.30;13.08;;;;;;;2.10;78.76;98814.13;1978670;88;27703;-64
2021/12/29 01:22:38;;;;;;;22.65;13.53;;;;;;;2.09;78.76;98812.41;1978401;88;29959;-62
2021/12/29 01:25:40;;;;;;;23.62;13.95;;;;;;;2.04;78.73;98821.84;2014132;88;32249;-63
2021/12/29 01:28:42;;;;;;;24.75;14.23;;;;;;;2.03;78.77;98823.20;2017628;86;33052;-59
2021/12/29 01:31:45;;;;;;;24.77;14.45;;;;;;;2.01;78.80;98816.67;2033981;87;30248;-61
2021/12/29 01:34:50;;;;;;;21.82;13.68;;;;;;;1.99;78.74;98821.15;2011264;87;27673;-60
2021/12/29 01:37:52;;;;;;;;;;;;;;;1.99;78.83;98828.22;2012158;88;28545;-59
2021/12/29 01:40:54;;;;;;;19.82;12.13;;;;;;;1.97;78.83;98825.63;2009927;88;31428;-60
2021/12/29 01:43:56;;;;;;;20.90;11.45;;;;;;;1.96;78.97;98819.50;2015180;87;35080;-60
2021/12/29 01:46:59;;;;;;;21.95;11.20;;;;;;;1.96;78.96;98819.94;2030816;87;30510;-63
2021/12/29 01:50:02;;;;;;;18.65;10.75;;;;;;;1.99;79.00;98818.98;2031111;87;27621;-59
2021/12/29 01:53:08;;;;;;;17.23;10.48;;;;;;;1.99;78.99;98815.86;2030419;87;29559;-61
2021/12/29 01:56:08;;;;;;;14.30;8.93;;;;;;;2.00;79.04;98816.27;2010770;88;31514;-62
2021/12/29 01:59:13;;;;;;;16.93;9.90;;;;;;;2.01;78.99;98815.35;2010091;87;33836;-61
2021/12/29 02:02:15;;;;;;;14.90;9.17;;;;;;;2.00;78.93;98805.70;2010715;87;29346;-61
2021/12/29 02:05:17;;;;;;;16.87;10.20;;;;;;;2.01;78.95;98802.59;2021451;87;27718;-63
2021/12/29 02:08:22;;;;;;;14.70;9.50;;;;;;;2.00;78.95;98810.98;2025137;87;29206;-60
2021/12/29 02:11:28;;;;;;;14.83;9.40;;;;;;;1.99;78.98;98811.91;2025007;87;32094;-61
2021/12/29 02:14:26;;;;;;;13.65;8.55;;;;;;;2.01;78.99;98815.80;2018393;87;32773;-61
2021/12/29 02:17:28;;;;;;;15.75;9.73;;;;;;;2.04;79.09;98813.03;2010158;88;30575;-61
2021/12/29 02:20:30;;;;;;;16.25;8.95;;;;;;;2.03;79.01;98808.67;2010427;88;27792;-60
2021/12/29 02:23:46;;;;;;;15.85;10.20;;;;;;;2.03;78.99;98804.71;2011963;87;29945;-61
2021/12/29 02:26:38;;;;;;;16.85;9.10;;;;;;;2.03;79.01;98806.91;2024881;87;31396;-61
2021/12/29 02:29:42;;;;;;;16.60;10.03;;;;;;;2.06;79.08;98812.52;2025527;87;32982;-61
2021/12/29 02:32:45;;;;;;;16.62;9.85;;;;;;;2.11;79.16;98817.17;2025246;87;30226;-62
2021/12/29 02:35:47;;;;;;;14.05;9.15;;;;;;;2.14;79.16;98821.02;2012380;87;27622;-61
2021/12/29 02:38:53;;;;;;;13.80;8.40;;;;;;;2.16;79.05;98824.44;2010104;87;29972;-61
2021/12/29 02:41:54;;;;;;;13.58;9.10;;;;;;;2.17;78.99;98820.88;2011960;87;31415;-61
2021/12/29 02:45:01;;;;;;;17.50;8.75;;;;;;;2.18;78.99;98820.44;2025124;87;32983;-61
2021/12/29 02:48:00;;;;;;;14.45;8.55;;;;;;;2.19;79.01;98828.29;2024961;87;29773;-61
2021/12/29 02:51:04;;;;;;;11.60;7.87;;;;;;;2.20;78.98;98833.13;2025172;87;27661;-61
2021/12/29 02:54:07;;;;;;;16.07;8.43;;;;;;;2.20;79.05;98830.02;2022698;87;28667;-61
2021/12/29 02:57:10;;;;;;;15.63;8.68;;;;;;;2.24;79.08;98826.34;2025149;87;31688;-61
2021/12/29 03:00:15;;;;;;;15.32;8.60;;;;;;;2.27;79.12;98824.02;2025189;87;33640;-60
2021/12/29 03:03:21;;;;;;;14.47;8.73;;;;;;;2.30;79.02;98827.02;2017113;87;30164;-61
2021/12/29 03:06:23;;;;;;;14.47;8.73;;;;;;;2.30;78.93;98833.63;2010761;88;27710;-61
2021/12/29 03:09:25;;;;;;;19.82;9.85;;;;;;;2.30;78.95;98842.87;2010903;88;29285;-61
2021/12/29 03:12:27;;;;;;;15.48;9.48;;;;;;;2.31;78.95;98848.09;2014123;87;32500;-61
2021/12/29 03:15:29;;;;;;;13.45;8.18;;;;;;;2.35;78.98;98855.43;2037036;85;33911;-60
2021/12/29 03:18:31;;;;;;;12.10;7.70;;;;;;;2.34;78.85;98857.23;2048798;86;30524;-60
2021/12/29 03:21:35;;;;;;;12.85;8.13;;;;;;;2.34;78.87;98857.67;2046916;86;27590;-62
2021/12/29 03:24:36;;;;;;;10.53;8.13;;;;;;;2.32;78.80;98859.54;2044874;87;28270;-61
2021/12/29 03:27:38;;;;;;;12.25;8.00;;;;;;;2.31;78.71;98863.10;2044726;87;32298;-61
2021/12/29 03:30:41;;;;;;;11.28;8.15;;;;;;;2.30;78.80;98863.55;2045482;86;33729;-61
2021/12/29 03:33:44;;;;;;;13.45;8.28;;;;;;;2.27;78.79;98861.89;2048832;86;30105;-61
2021/12/29 03:36:46;;;;;;;14.90;9.43;;;;;;;2.30;78.89;98858.26;2048644;86;28073;-61
2021/12/29 03:39:48;;;;;;;15.68;10.15;;;;;;;2.31;78.80;98855.17;2048486;86;29957;-60
2021/12/29 03:42:50;;;;;;;13.90;10.40;;;;;;;2.31;78.75;98855.17;2045616;86;30991;-60
2021/12/29 03:45:53;;;;;;;15.70;9.88;;;;;;;2.25;78.67;98854.48;2020288;87;34201;-64
2021/12/29 03:48:55;;;;;;;15.80;10.32;;;;;;;2.21;78.59;98854.67;2045127;87;30006;-61
2021/12/29 03:51:58;;;;;;;15.43;10.35;;;;;;;2.17;78.64;98870.23;2047375;86;27697;-60
2021/12/29 03:55:00;;;;;;;15.78;10.18;;;;;;;2.12;78.66;98871.26;2049142;86;28672;-60
2021/12/29 03:58:02;;;;;;;17.52;11.10;;;;;;;2.10;78.65;98869.61;2048683;86;32265;-60
2021/12/29 04:01:09;;;;;;;16.10;10.80;;;;;;;2.05;78.59;98883.00;2047555;86;34192;-61
2021/12/29 04:04:11;;;;;;;17.45;10.45;;;;;;;1.97;78.59;98889.89;2044210;87;30104;-60
2021/12/29 04:07:13;;;;;;;16.45;10.98;;;;;;;1.94;78.73;98901.88;2045018;87;27631;-63
2021/12/29 04:10:16;;;;;;;21.10;10.75;;;;;;;1.93;78.82;98896.64;2044937;87;29413;-63
2021/12/29 04:13:17;;;;;;;19.35;11.55;;;;;;;1.91;78.89;98899.34;2047431;86;31005;-61
2021/12/29 04:16:19;;;;;;;16.57;11.65;;;;;;;1.93;78.90;98902.80;2047670;86;34188;-62
2021/12/29 04:19:40;;;;;;;22.22;12.13;;;;;;;1.92;78.92;98903.71;2047727;86;29523;-60
2021/12/29 04:22:34;;;;;;;20.80;11.80;;;;;;;1.94;79.01;98909.80;2051226;86;27812;-62
2021/12/29 04:25:38;;;;;;;19.05;11.65;;;;;;;1.95;79.01;98911.97;2052517;86;30267;-61
2021/12/29 04:28:39;;;;;;;24.25;12.13;;;;;;;1.94;79.01;98909.80;2052085;86;31034;-65
2021/12/29 04:31:42;;;;;;;21.85;12.50;;;;;;;1.92;78.99;98910.75;2050475;86;33162;-62
2021/12/29 04:34:45;;;;;;;17.45;11.57;;;;;;;1.91;79.02;98914.31;2048340;86;30454;-61
2021/12/29 04:37:48;;;;;;;20.05;12.60;;;;;;;1.91;79.09;98912.55;2048234;86;28307;-61
2021/12/29 04:40:54;;;;;;;21.77;12.50;;;;;;;1.91;79.08;98912.55;2048386;86;29575;-61
2021/12/29 04:43:56;;;;;;;19.00;12.45;;;;;;;1.92;79.10;98920.88;2052269;86;31081;-66
2021/12/29 04:46:58;;;;;;;24.32;13.88;;;;;;;1.91;79.12;98925.75;2052157;86;33609;-61
2021/12/29 04:50:02;;;;;;;24.00;12.33;;;;;;;1.93;79.16;98930.97;2052195;86;29745;-64
2021/12/29 04:53:06;;;;;;;23.22;12.75;;;;;;;1.94;79.20;98932.25;2050284;86;27728;-61
2021/12/29 04:56:08;;;;;;;26.00;14.47;;;;;;;1.94;79.15;98935.33;2052325;86;29498;-60
2021/12/29 04:59:10;;;;;;;28.23;17.20;;;;;;;1.96;79.20;98934.82;2052313;86;32158;-62
2021/12/29 05:02:12;;;;;;;23.57;15.10;;;;;;;1.97;79.23;98936.55;2051564;86;34195;-61
2021/12/29 05:05:39;;;;;;;27.95;15.05;;;;;;;1.99;79.24;98936.52;2048391;86;29694;-61
2021/12/29 05:08:27;;;;;;;24.15;15.35;;;;;;;1.97;79.24;98940.06;2048001;86;27746;-62
2021/12/29 05:11:29;;;;;;;25.00;15.88;;;;;;;1.99;79.27;98947.08;2049432;86;29084;-64
2021/12/29 05:14:31;;;;;;;24.92;15.25;;;;;;;1.96;79.18;98951.98;2052256;86;31469;-61
2021/12/29 05:17:33;;;;;;;28.62;16.48;;;;;;;1.91;79.14;98958.77;2025843;86;33442;-61
2021/12/29 05:20:35;;;;;;;24.72;15.63;;;;;;;1.90;79.23;98958.83;2025019;87;30808;-61
2021/12/29 05:23:37;;;;;;;27.42;16.97;;;;;;;1.90;79.25;98959.68;2011111;87;27719;-61
2021/12/29 05:26:39;;;;;;;26.20;17.50;;;;;;;1.88;79.25;98963.30;2010382;88;28673;-60
2021/12/29 05:29:41;;;;;;;28.90;16.93;;;;;;;1.87;79.30;98958.47;2010616;88;31252;-60
2021/12/29 05:32:43;;;;;;;27.35;17.20;;;;;;;1.85;79.33;98962.93;2020129;87;33414;-61
2021/12/29 05:35:45;;;;;;;24.90;15.75;;;;;;;1.85;79.34;98961.61;2025295;87;30186;-60
2021/12/29 05:38:47;;;;;;;24.85;16.23;;;;;;;1.86;79.37;98970.41;2031815;86;27747;-62
2021/12/29 05:41:51;;;;;;;26.15;15.95;;;;;;;1.87;79.36;98976.95;2034055;86;29944;-60
2021/12/29 05:44:53;;;;;;;22.85;15.75;;;;;;;1.89;79.39;98978.23;2009797;88;30826;-61
2021/12/29 05:47:56;;;;;;;23.22;14.03;;;;;;;1.92;79.46;98989.54;2010225;88;33132;-60
2021/12/29 05:50:57;;;;;;;22.13;15.30;;;;;;;1.93;79.43;98982.47;2011240;87;29786;-62
2021/12/29 05:53:59;;;;;;;21.37;14.15;;;;;;;1.93;79.39;98984.66;2025395;87;27706;-61
2021/12/29 05:57:01;;;;;;;20.75;13.10;;;;;;;1.96;79.41;98987.64;2016582;87;28481;-61
2021/12/29 06:00:07;;;;;;;22.27;14.15;;;;;;;1.98;79.36;98988.45;2010467;87;31431;-61
2021/12/29 06:03:09;;;;;;;19.70;13.83;;;;;;;1.99;79.31;98991.50;2021765;87;33840;-61
2021/12/29 06:06:11;;;;;;;18.67;13.65;;;;;;;1.98;79.25;98999.02;2020343;87;30525;-61
2021/12/29 06:09:14;;;;;;;20.27;14.28;;;;;;;1.97;79.21;99002.13;2010613;88;27682;-60
2021/12/29 06:12:16;;;;;;;20.75;15.03;;;;;;;1.93;79.11;99003.15;2010534;88;28598;-61
2021/12/29 06:15:18;;;;;;;19.07;13.62;;;;;;;1.90;79.12;99004.58;2014149;86;32298;-62
2021/12/29 06:18:19;;;;;;;19.20;14.03;;;;;;;1.87;79.09;99004.67;2019328;88;33374;-62
2021/12/29 06:21:21;;;;;;;19.82;14.25;;;;;;;1.84;79.21;98999.49;2018644;88;30643;-60
2021/12/29 06:24:23;;;;;;;22.60;15.40;;;;;;;1.83;79.27;99004.38;2019458;88;27635;-64
2021/12/29 06:27:25;;;;;;;21.90;15.03;;;;;;;1.82;79.29;99015.88;2039769;86;29868;-62
2021/12/29 06:30:26;;;;;;;22.85;14.18;;;;;;;1.84;79.39;99021.94;2048257;86;32458;-61
2021/12/29 06:33:28;;;;;;;22.73;15.30;;;;;;;1.87;79.45;99027.13;2052040;86;33741;-62
2021/12/29 06:36:30;;;;;;;22.00;14.47;;;;;;;1.88;79.37;99033.28;2050648;86;30637;-60
2021/12/29 06:39:32;;;;;;;22.90;15.25;;;;;;;1.88;79.41;99042.53;2049071;86;27725;-62
2021/12/29 06:42:34;;;;;;;23.95;15.95;;;;;;;1.90;79.48;99045.50;2052168;86;28442;-60
2021/12/29 06:45:38;;;;;;;32.40;17.62;;;;;;;1.93;79.50;99053.33;2051804;86;32338;-60
2021/12/29 06:48:40;;;;;;;22.67;15.45;;;;;;;1.99;79.52;99058.01;2051705;86;34178;-61
2021/12/29 06:51:42;;;;;;;28.38;17.67;;;;;;;2.02;79.53;99067.12;2048080;86;30548;-60
2021/12/29 06:54:46;;;;;;;24.02;16.17;;;;;;;2.06;79.58;99068.30;2048342;86;28266;-60
2021/12/29 06:57:47;;;;;;;26.23;16.77;;;;;;;2.12;79.64;99071.19;2048236;86;29925;-62
2021/12/29 07:00:49;;;;;;;27.10;18.07;;;;;;;2.18;79.59;99076.23;2051193;86;31561;-61
2021/12/29 07:03:51;;;;;;;29.52;18.75;;;;;;;2.23;79.48;99086.19;2052462;86;33544;-61
2021/12/29 07:06:54;;;;;;;29.32;18.37;;;;;;;2.26;79.42;99079.48;2051777;86;29455;-62
2021/12/29 07:09:56;;;;;;;28.25;17.35;;;;;;;2.30;79.47;99086.84;2050631;86;27725;-61
2021/12/29 07:12:58;;;;;;;27.10;16.80;;;;;;;2.33;79.39;99091.14;2048398;86;29114;-61
2021/12/29 07:15:59;;;;;;;28.95;17.55;;;;;;;2.33;79.22;99102.59;2048183;86;31079;-60
2021/12/29 07:19:01;;;;;;;27.80;16.75;;;;;;;2.28;79.12;99100.12;2048215;86;34178;-61
2021/12/29 07:22:04;;;;;;;29.75;17.92;;;;;;;2.33;79.23;99105.67;2051755;86;30636;-64
2021/12/29 07:25:07;;;;;;;27.48;16.97;;;;;;;2.37;79.33;99112.14;2052318;86;27672;-61
2021/12/29 07:28:08;;;;;;;31.37;18.00;;;;;;;2.38;79.25;99120.92;2052192;86;29353;-60
2021/12/29 07:31:10;;;;;;;29.25;18.80;;;;;;;2.41;79.40;99114.21;2047931;86;31905;-60
2021/12/29 07:34:12;;;;;;;27.73;17.48;;;;;;;2.48;79.37;99124.98;2048346;86;32860;-61
2021/12/29 07:37:14;;;;;;;28.57;17.77;;;;;;;2.53;79.38;99128.78;2048414;86;29700;-60
2021/12/29 07:40:16;;;;;;;32.85;19.65;;;;;;;2.55;79.26;99129.12;2050192;86;27871;-60
2021/12/29 07:43:19;;;;;;;29.75;18.73;;;;;;;2.58;79.24;99132.98;2052234;86;29060;-60
2021/12/29 07:46:21;;;;;;;31.35;18.92;;;;;;;2.62;79.26;99140.34;2056455;85;31594;-60
2021/12/29 07:49:23;;;;;;;27.50;18.10;;;;;;;2.64;79.16;99142.47;2071953;85;33998;-60
2021/12/29 07:52:26;;;;;;;27.58;18.35;;;;;;;2.67;79.21;99148.98;2047599;86;29821;-60
2021/12/29 07:55:28;;;;;;;28.38;16.77;;;;;;;2.68;79.11;99152.47;2050926;85;27710;-61
2021/12/29 07:58:30;;;;;;;25.37;16.45;;;;;;;2.75;79.29;99156.63;2058035;85;28834;-62
2021/12/29 08:01:32;;;;;;;26.62;17.30;;;;;;;2.80;79.32;99156.02;2051317;85;30849;-61
2021/12/29 08:04:34;;;;;;;27.60;16.90;;;;;;;2.87;79.33;99164.11;2047320;86;33822;-64
2021/12/29 08:07:36;;;;;;;32.58;17.98;;;;;;;2.91;79.14;99170.63;2048142;86;30518;-61
2021/12/29 08:10:39;;;;;;;28.45;18.07;;;;;;;2.94;79.04;99174.48;2050236;86;27726;-62
2021/12/29 08:13:41;;;;;;;34.05;19.17;;;;;;;2.96;79.05;99173.50;2051891;86;29500;-62
2021/12/29 08:16:43;;;;;;;27.65;18.25;;;;;;;3.01;79.16;99171.55;2050424;85;32396;-61
2021/12/29 08:19:46;;;;;;;33.90;19.05;;;;;;;3.08;79.16;99180.56;2044807;87;34370;-62
2021/12/29 08:22:47;;;;;;;30.05;19.57;;;;;;;3.12;79.05;99174.25;2045186;87;30138;-62
2021/12/29 08:25:50;;;;;;;30.25;20.23;;;;;;;3.14;78.92;99183.88;2044865;87;27796;-65
2021/12/29 08:28:51;;;;;;;31.85;19.98;;;;;;;3.17;78.95;99175.80;2057367;85;28872;-64
2021/12/29 08:31:55;;;;;;;31.42;19.70;;;;;;;3.22;78.91;99182.27;2068296;85;31411;-63
2021/12/29 08:34:56;;;;;;;29.32;19.55;;;;;;;3.24;78.83;99188.34;2077150;85;33361;-63
2021/12/29 08:37:59;;;;;;;31.30;19.50;;;;;;;3.28;78.77;99191.28;2024673;87;30250;-62
2021/12/29 08:41:02;;;;;;;34.40;20.48;;;;;;;3.32;78.78;99199.52;2045091;86;27956;-62
2021/12/29 08:44:04;;;;;;;30.32;19.90;;;;;;;3.36;78.71;99206.02;2044817;87;29635;-62
2021/12/29 08:47:08;;;;;;;34.10;19.80;;;;;;;3.40;78.82;99207.61;2046123;86;31145;-62
2021/12/29 08:50:15;;;;;;;33.20;20.85;;;;;;;3.47;78.82;99215.30;2046586;86;33499;-61
2021/12/29 08:53:17;;;;;;;31.15;20.65;;;;;;;3.54;78.93;99214.59;2068425;86;29333;-61
2021/12/29 08:56:19;;;;;;;34.63;20.95;;;;;;;3.60;78.90;99210.36;2068993;85;27725;-63
2021/12/29 08:59:22;;;;;;;29.37;19.65;;;;;;;3.68;78.77;99207.89;2057971;85;29301;-61
2021/12/29 09:02:25;;;;;;;33.85;21.30;;;;;;;3.73;78.85;99212.09;2068932;86;31151;-61
2021/12/29 09:05:27;;;;;;;37.78;20.55;;;;;;;3.80;78.78;99215.35;2068787;85;34238;-61
2021/12/29 09:08:30;;;;;;;33.00;21.75;;;;;;;3.85;78.68;99225.77;2051996;86;28763;-61
2021/12/29 09:11:31;;;;;;;34.75;21.97;;;;;;;3.89;78.54;99226.90;2039528;87;27727;-64
2021/12/29 09:14:35;;;;;;;35.70;21.70;;;;;;;3.93;78.50;99225.86;2042635;87;28553;-60
2021/12/29 09:17:37;;;;;;;32.13;21.95;;;;;;;;;;2032666;86;32207;-62
2021/12/29 09:20:45;;;;;;;33.53;21.27;;;;;;;4.00;78.44;99236.23;2010116;88;34417;-62
2021/12/29 09:23:44;;;;;;;37.48;23.20;;;;;;;4.04;78.46;99226.77;2020661;87;29368;-62
2021/12/29 09:26:46;;;;;;;39.65;24.05;;;;;;;4.11;78.43;99230.02;2025406;87;27709;-61
2021/12/29 09:29:48;;;;;;;42.15;26.45;;;;;;;4.14;78.32;99226.41;2025375;87;29881;-62
2021/12/29 09:32:50;;;;;;;36.58;24.65;;;;;;;4.17;78.34;99227.14;2019931;87;31377;-62
2021/12/29 09:35:59;;;;;;;39.13;25.77;;;;;;;4.23;78.26;99226.87;2035308;86;34239;-64
2021/12/29 09:39:00;;;;;;;42.08;25.75;;;;;;;4.34;78.54;99229.56;2047425;86;29336;-61
2021/12/29 09:42:05;;;;;;;45.50;26.45;;;;;;;4.42;78.18;99226.11;2046095;86;27656;-61
2021/12/29 09:45:08;;;;;;;41.40;26.30;;;;;;;4.50;78.17;99220.48;2047551;85;30073;-61
2021/12/29 09:48:10;;;;;;;38.35;25.65;;;;;;;4.63;78.36;99214.20;2047156;85;31951;-61
2021/12/29 09:51:12;;;;;;;43.10;27.02;;;;;;;4.81;78.48;99212.53;2047830;86;34260;-61
2021/12/29 09:54:14;;;;;;;41.10;25.85;;;;;;;5.00;78.44;99206.81;2028277;85;29404;-61
2021/12/29 09:57:16;;;;;;;38.08;23.42;;;;;;;5.18;78.09;99212.23;2025434;87;27876;-61
2021/12/29 10:00:38;;;;;;;37.48;23.90;;;;;;;5.34;77.98;99219.05;2025426;87;29842;-62
2021/12/29 10:03:44;;;;;;;49.30;29.10;;;;;;;5.48;78.14;99226.38;2039093;86;27709;-65
2021/12/29 10:06:46;;;;;;;56.85;32.48;;;;;;;5.54;77.64;99226.10;2047725;85;33012;-60
2021/12/29 10:09:48;;;;;;;46.30;27.07;;;;;;;5.60;77.73;99233.80;2048091;86;29879;-61
2021/12/29 10:12:50;;;;;;;43.70;27.27;;;;;;;5.65;77.44;99233.58;2035336;85;27740;-61
2021/12/29 10:15:55;;;;;;;49.65;31.60;;;;;;;5.72;77.54;99231.01;2010368;88;29877;-61
2021/12/29 10:19:06;;;;;;;51.68;29.63;;;;;;;5.80;77.42;99227.14;2010396;87;31955;-60
2021/12/29 10:22:21;;;;;;;49.45;30.32;;;;;;;5.88;77.26;99221.86;2011428;87;34146;-61
2021/12/29 10:25:24;;;;;;;47.38;28.92;;;;;;;5.89;77.09;99222.70;2025087;87;29442;-61
2021/12/29 10:28:31;;;;;;;45.63;29.18;;;;;;;5.91;76.85;99219.51;2024998;87;27707;-61
2021/12/29 10:31:40;;;;;;;52.35;32.17;;;;;;;5.91;76.96;99226.16;2025312;87;28688;-61
2021/12/29 10:34:47;;;;;;;49.15;32.58;;;;;;;6.00;77.15;99229.75;2011739;87;32253;-61
2021/12/29 10:37:52;;;;;;;45.83;31.52;;;;;;;6.11;77.12;99235.00;2009940;88;33912;-61
2021/12/29 10:41:04;;;;;;;47.43;29.53;;;;;;;6.18;76.83;99237.29;2010546;88;30161;-61
2021/12/29 10:44:06;;;;;;;47.20;27.93;;;;;;;6.27;76.93;99242.62;2019723;87;27719;-63
2021/12/29 10:47:31;;;;;;;50.08;29.07;;;;;;;6.32;76.88;99255.23;2025164;87;29581;-61
2021/12/29 10:50:33;;;;;;;45.25;27.70;;;;;;;6.37;76.79;99252.34;2030132;86;30970;-64
2021/12/29 10:53:38;;;;;;;40.67;26.93;;;;;;;6.41;76.82;99259.70;2029311;85;34191;-62
2021/12/29 10:56:44;;;;;;;48.50;30.88;;;;;;;6.41;76.71;99262.36;2048536;86;29345;-62
2021/12/29 10:59:51;;;;;;;58.15;36.30;;;;;;;6.41;76.64;99269.02;2034365;85;28324;-62
2021/12/29 11:02:57;;;;;;;58.38;38.45;;;;;;;6.37;76.44;99273.14;2024802;86;28821;-61
2021/12/29 11:06:03;;;;;;;84.05;48.87;;;;;;;6.33;76.37;99273.38;2010147;87;31213;-60
2021/12/29 11:09:05;;;;;;;69.65;44.70;;;;;;;6.29;76.30;99276.66;2010216;87;32991;-62
2021/12/29 11:12:13;;;;;;;63.13;34.73;;;;;;;6.26;76.40;99275.96;2010418;87;30270;-61
2021/12/29 11:15:25;;;;;;;61.23;33.42;;;;;;;6.24;76.43;99273.36;2015612;88;27195;-63
2021/12/29 11:18:45;;;;;;;54.18;34.10;;;;;;;6.19;76.22;99277.58;1968069;89;28936;-60
2021/12/29 11:21:49;;;;;;;66.37;41.35;;;;;;;6.16;76.30;99284.36;1950804;91;32313;-61
2021/12/29 11:25:01;;;;;;;60.83;37.83;;;;;;;6.14;76.36;99280.91;1978506;89;34285;-61
2021/12/29 11:28:04;;;;;;;64.17;44.67;;;;;;;6.09;76.22;99284.28;1978473;89;29418;-63
2021/12/29 11:31:09;;;;;;;78.25;45.33;;;;;;;6.09;76.36;99285.61;1978462;90;27882;-61
2021/12/29 11:34:25;;;;;;;66.40;38.73;;;;;;;6.11;76.35;99285.52;1978435;88;28525;-61
2021/12/29 11:37:27;;;;;;;87.00;48.13;;;;;;;6.10;76.35;99283.80;1981300;89;31420;-62
2021/12/29 11:40:33;;;;;;;90.03;46.08;;;;;;;6.07;76.35;99284.81;1980720;89;33824;-63
2021/12/29 11:43:35;;;;;;;86.67;44.63;;;;;;;6.07;76.35;99291.47;1980562;89;29920;-62
2021/12/29 11:46:37;;;;;;;76.33;39.48;;;;;;;6.10;76.45;99298.42;1978393;90;27912;-62
2021/12/29 11:49:40;;;;;;;65.50;36.68;;;;;;;6.13;76.49;99288.49;1978539;90;28740;-64
2021/12/29 11:53:22;;;;;;;77.45;41.73;;;;;;;6.17;76.52;99294.55;1978360;90;31131;-61
2021/12/29 11:56:24;;;;;;;74.80;39.15;;;;;;;6.19;76.50;99290.88;1978038;90;34058;-62
2021/12/29 11:59:33;;;;;;;72.50;41.77;;;;;;;6.25;76.54;99300.83;1978049;90;30194;-60
2021/12/29 12:02:35;;;;;;;83.87;49.08;;;;;;;6.27;76.46;99303.80;1978137;90;27803;-61
2021/12/29 12:05:41;;;;;;;107.32;58.48;;;;;;;6.29;76.38;99309.06;1978332;90;29882;-61
2021/12/29 12:08:43;;;;;;;95.83;59.38;;;;;;;6.32;76.41;99304.45;1978502;89;32215;-60
2021/12/29 12:11:55;;;;;;;78.15;45.35;;;;;;;6.34;76.27;99305.24;1978318;90;32767;-62
2021/12/29 12:14:57;;;;;;;82.55;47.83;;;;;;;6.36;76.33;99307.81;2001216;88;29372;-60
2021/12/29 12:18:07;;;;;;;94.13;53.02;;;;;;;6.39;76.35;99312.99;2015703;88;27654;-63
2021/12/29 12:21:05;;;;;;;92.88;51.98;;;;;;;6.42;76.36;99315.96;2036153;86;30378;-63
2021/12/29 12:24:21;;;;;;;94.97;52.03;;;;;;;6.46;76.40;99318.39;2050372;86;32274;-64
2021/12/29 12:27:36;;;;;;;85.32;48.70;;;;;;;6.48;76.33;99319.67;2059919;86;32975;-60
2021/12/29 12:30:45;;;;;;;83.20;46.53;;;;;;;6.50;76.28;99315.98;2047906;86;30188;-62
2021/12/29 12:33:47;;;;;;;94.00;55.52;;;;;;;6.51;76.26;99319.52;2048209;86;27945;-62
2021/12/29 12:36:49;;;;;;;75.52;45.83;;;;;;;6.55;76.32;99323.73;2059540;86;28664;-62
2021/12/29 12:40:12;;;;;;;84.90;50.00;;;;;;;6.58;76.30;99317.42;2048504;86;32347;-61
2021/12/29 12:43:17;;;;;;;120.70;66.55;;;;;;;6.62;76.36;99322.52;2041479;87;33255;-63
2021/12/29 12:46:44;;;;;;;112.95;61.90;;;;;;;6.73;76.34;99326.43;2041913;87;29539;-62
2021/12/29 12:49:54;;;;;;;114.92;61.63;;;;;;;6.81;76.51;99318.45;2050673;86;27674;-61
2021/12/29 12:52:57;;;;;;;101.38;55.85;;;;;;;6.91;76.47;99324.19;2059846;86;29874;-62
2021/12/29 12:56:00;;;;;;;93.80;52.70;;;;;;;7.03;76.48;99321.86;2036799;86;32224;-61
2021/12/29 12:59:10;;;;;;;101.75;57.85;;;;;;;7.07;76.13;99323.41;2054981;86;33877;-62
2021/12/29 13:02:16;;;;;;;132.78;69.45;;;;;;;7.08;76.07;99327.80;2041675;87;29645;-63
2021/12/29 13:05:35;;;;;;;179.65;93.17;;;;;;;7.12;76.04;99328.03;2041486;87;27723;-63
2021/12/29 13:08:41;;;;;;;198.68;97.05;;;;;;;7.16;76.00;99326.95;1983806;89;29311;-62
2021/12/29 13:11:44;;;;;;;115.47;59.93;;;;;;;7.17;75.94;99328.67;1978019;90;31014;-62
2021/12/29 13:14:48;;;;;;;91.32;49.23;;;;;;;7.19;75.90;99329.45;1977539;90;34178;-61
2021/12/29 13:17:52;;;;;;;78.22;43.65;;;;;;;7.18;75.79;99331.73;1975820;89;29549;-64
2021/12/29 13:20:59;;;;;;;110.55;60.88;;;;;;;7.17;75.76;99343.32;1974836;90;28417;-63
2021/12/29 13:24:05;;;;;;;106.60;56.45;;;;;;;7.15;75.74;99350.04;1976633;90;28672;-62
2021/12/29 13:27:08;;;;;;;99.40;51.95;;;;;;;7.10;75.62;99353.43;1976496;90;31247;-62
2021/12/29 13:30:20;;;;;;;91.05;49.13;;;;;;;7.06;75.63;99360.30;1968995;90;33158;-61
2021/12/29 13:33:28;;;;;;;89.35;45.70;;;;;;;6.99;75.60;99365.95;1915227;92;29349;-64
2021/12/29 13:36:30;;;;;;;93.72;47.88;;;;;;;6.92;75.60;99367.17;1915500;92;27788;-60
2021/12/29 13:39:32;;;;;;;93.67;45.78;;;;;;;6.87;75.63;99371.86;1920171;92;28264;-60
2021/12/29 13:42:39;;;;;;;89.25;45.67;;;;;;;6.83;75.59;99377.81;1923353;92;32359;-61
2021/12/29 13:45:41;;;;;;;100.72;48.40;;;;;;;6.79;75.61;99375.38;1982940;88;33165;-62
2021/12/29 13:48:46;;;;;;;93.40;49.77;;;;;;;6.76;75.70;99380.40;1981217;89;29400;-62
2021/12/29 13:51:49;;;;;;;81.20;45.98;;;;;;;6.75;75.61;99385.78;2008317;88;27753;-62
2021/12/29 13:54:51;;;;;;;87.17;45.25;;;;;;;6.67;75.65;99391.02;2002764;88;29903;-63
2021/12/29 13:57:55;;;;;;;71.75;40.98;;;;;;;6.64;75.63;99389.84;1989470;88;31084;-62
2021/12/29 14:00:58;;;;;;;60.50;31.73;;;;;;;6.60;75.71;99390.91;1971961;88;33134;-69
2021/12/29 14:04:01;;;;;;;82.97;39.35;;;;;;;6.56;75.68;99396.45;1996806;88;30146;-62
2021/12/29 14:07:07;;;;;;;84.52;43.38;;;;;;;6.52;75.63;99393.09;2013583;88;27721;-63
2021/12/29 14:10:11;;;;;;;82.60;44.38;;;;;;;6.43;75.59;99401.05;1995497;88;28662;-61
2021/12/29 14:13:19;;;;;;;82.17;43.20;;;;;;;6.39;75.70;99412.27;1986284;89;31035;-62
2021/12/29 14:16:21;;;;;;;81.35;42.27;;;;;;;6.35;75.73;99421.80;1977794;90;33030;-62
2021/12/29 14:19:30;;;;;;;73.47;41.65;;;;;;;6.31;75.71;99424.20;1973646;88;30162;-64